Time;durP1;ratioP1;P1;durP2;ratioP2;P2;SDS_P1;SDS_P2;PMS_P1;PMS_P2;Temp;Humidity;BMP_temperature;BMP_pressure;BME280_temperature;BME280_humidity;BME280_pressure;Samples;Min_cycle;Max_cycle;Signal;HPM_P1;HPM_P2
2022/09/06 00:02:17;;;;;;;;;;;;;;;19.30;100.00;101478.28;5036119;28;19909;-43
2022/09/06 00:04:43;;;;;;;;;;;;;;;19.31;100.00;101493.47;5034994;28;19939;-42
2022/09/06 00:07:08;;;;;;;;;;;;;;;19.35;100.00;101490.16;5036724;28;19913;-45
2022/09/06 00:09:33;;;;;;;;;;;;;;;19.39;100.00;101510.38;5035478;28;19920;-42
2022/09/06 00:11:58;;;;;;;;;;;;;;;19.49;100.00;101515.41;5036111;28;20162;-44
2022/09/06 00:14:23;;;;;;;;;;;;;;;19.61;100.00;101539.22;5036105;28;19959;-48
2022/09/06 00:16:48;;;;;;;;;;;;;;;19.54;100.00;101561.69;5034723;28;19987;-44
2022/09/06 00:19:14;;;;;;;;;;;;;;;19.26;100.00;101596.16;5027969;28;19904;-44
2022/09/06 00:21:39;;;;;;;;;;;;;;;19.03;100.00;101601.88;5034280;28;19960;-44
2022/09/06 00:24:04;;;;;;;;;;;;;;;18.91;100.00;101632.19;5031380;28;19915;-43
2022/09/06 00:26:30;;;;;;;;;;;;;;;18.77;100.00;101650.16;5024231;28;20127;-46
2022/09/06 00:28:55;;;;;;;;;;;;;;;18.59;100.00;101642.50;5022469;28;19913;-42
2022/09/06 00:31:22;;;;;;;;;;;;;;;18.47;100.00;101649.50;5032198;28;19913;-45
2022/09/06 00:33:47;;;;;;;;;;;;;;;18.38;100.00;101654.19;5035419;28;19912;-43
2022/09/06 00:36:13;;;;;;;;;;;;;;;18.39;100.00;101658.56;5036234;28;20113;-44
2022/09/06 00:38:39;;;;;;;;;;;;;;;18.39;100.00;101666.66;5015829;28;19935;-45
2022/09/06 00:41:04;;;;;;;;;;;;;;;18.42;100.00;101660.06;5015901;28;19927;-42
2022/09/06 00:43:29;;;;;;;;;;;;;;;18.40;100.00;101665.66;5031391;28;20200;-46
2022/09/06 00:45:55;;;;;;;;;;;;;;;18.45;100.00;101659.69;5033035;28;19974;-44
2022/09/06 00:48:21;;;;;;;;;;;;;;;18.50;100.00;101657.22;5034345;28;20116;-45
2022/09/06 00:50:48;;;;;;;;;;;;;;;18.59;100.00;101655.22;5031336;28;19995;-43
2022/09/06 00:53:14;;;;;;;;;;;;;;;18.68;100.00;101658.63;5028558;28;19940;-46
2022/09/06 00:55:41;;;;;;;;;;;;;;;18.72;100.00;101652.63;5016954;28;20381;-42
2022/09/06 00:58:07;;;;;;;;;;;;;;;18.77;100.00;101638.50;5016732;28;19967;-43
2022/09/06 01:00:32;;;;;;;;;;;;;;;18.88;100.00;101637.16;5028815;28;19924;-44
2022/09/06 01:02:58;;;;;;;;;;;;;;;18.98;100.00;101634.94;5026989;28;19913;-43
2022/09/06 01:05:26;;;;;;;;;;;;;;;19.02;100.00;101614.56;5033276;28;19916;-44
2022/09/06 01:08:04;;;;;;;;;;;;;;;19.10;100.00;101600.88;5035622;28;20129;-46
2022/09/06 01:10:35;;;;;;;;;;;;;;;19.15;100.00;101606.53;5034682;28;19913;-42
2022/09/06 01:13:09;;;;;;;;;;;;;;;19.14;100.00;101610.25;5028675;28;19976;-45
2022/09/06 01:15:57;;;;;;;;;;;;;;;19.09;100.00;101615.44;5032884;28;19944;-43
2022/09/06 01:18:30;;;;;;;;;;;;;;;19.17;100.00;101603.63;5034392;28;20437;-45
2022/09/06 01:21:05;;;;;;;;;;;;;;;19.25;100.00;101594.50;5024699;28;19917;-44
2022/09/06 01:23:36;;;;;;;;;;;;;;;19.27;100.00;101600.56;5034585;28;19912;-46
2022/09/06 01:26:01;;;;;;;;;;;;;;;19.29;100.00;101590.34;5035034;28;19916;-43
2022/09/06 01:28:30;;;;;;;;;;;;;;;19.33;100.00;101580.78;5016226;28;20394;-43
2022/09/06 01:31:11;;;;;;;;;;;;;;;19.37;100.00;101557.69;5052788;28;19920;-45
2022/09/06 01:33:42;;;;;;;;;;;;;;;19.29;100.00;101515.34;5021166;28;19987;-44
2022/09/06 01:36:09;;;;;;;;;;;;;;;19.15;100.00;101492.78;5030062;28;20354;-42
2022/09/06 01:38:35;;;;;;;;;;;;;;;19.01;100.00;101466.72;5034249;28;20120;-43
2022/09/06 01:41:00;;;;;;;;;;;;;;;18.87;100.00;101449.56;5035311;28;19916;-47
2022/09/06 01:43:29;;;;;;;;;;;;;;;18.73;100.00;101429.69;5034114;28;19913;-46
2022/09/06 01:46:01;;;;;;;;;;;;;;;18.64;100.00;101423.63;5028848;28;19916;-45
2022/09/06 01:48:29;;;;;;;;;;;;;;;18.57;100.00;101422.75;5029300;28;20119;-43
2022/09/06 01:51:04;;;;;;;;;;;;;;;18.58;100.00;101427.13;5019317;28;20384;-45
2022/09/06 01:53:48;;;;;;;;;;;;;;;18.60;100.00;101424.22;5032466;28;19921;-46
2022/09/06 01:56:32;;;;;;;;;;;;;;;18.60;100.00;101419.66;5032427;28;19939;-43
2022/09/06 01:59:14;;;;;;;;;;;;;;;18.60;100.00;101419.66;5031443;28;20278;-42
2022/09/06 02:01:40;;;;;;;;;;;;;;;18.60;100.00;101418.81;5032413;28;19928;-44
2022/09/06 02:04:11;;;;;;;;;;;;;;;18.59;100.00;101417.16;5023351;28;19917;-43
2022/09/06 02:06:40;;;;;;;;;;;;;;;18.61;100.00;101429.41;5033916;28;19978;-44
2022/09/06 02:09:07;;;;;;;;;;;;;;;18.65;100.00;101429.84;5025559;28;19917;-43
2022/09/06 02:11:37;;;;;;;;;;;;;;;18.70;100.00;101427.38;5034279;28;20133;-45
2022/09/06 02:14:08;;;;;;;;;;;;;;;18.72;100.00;101422.63;5034650;28;19909;-44
2022/09/06 02:16:37;;;;;;;;;;;;;;;18.76;100.00;101421.19;5033087;28;20317;-42
2022/09/06 02:19:06;;;;;;;;;;;;;;;18.80;100.00;101418.91;5034292;28;19909;-42
2022/09/06 02:21:33;;;;;;;;;;;;;;;18.81;100.00;101412.47;5034273;28;19913;-45
2022/09/06 02:24:00;;;;;;;;;;;;;;;18.73;100.00;101421.56;5024401;28;19970;-44
2022/09/06 02:26:27;;;;;;;;;;;;;;;18.77;100.00;101432.81;5034548;28;20280;-44
2022/09/06 02:28:53;;;;;;;;;;;;;;;18.76;100.00;101448.25;5021172;28;20510;-45
2022/09/06 02:31:22;;;;;;;;;;;;;;;18.75;100.00;101451.97;5019722;28;20016;-43
2022/09/06 02:33:49;;;;;;;;;;;;;;;18.62;100.00;101471.69;5021295;28;19913;-43
2022/09/06 02:36:14;;;;;;;;;;;;;;;18.39;100.00;101477.34;5032265;28;20188;-44
2022/09/06 02:38:40;;;;;;;;;;;;;;;18.23;100.00;101450.63;5025620;28;19951;-45
2022/09/06 02:41:06;;;;;;;;;;;;;;;18.24;100.00;101457.69;5026499;28;19947;-44
2022/09/06 02:43:31;;;;;;;;;;;;;;;18.27;100.00;101439.22;5024037;28;20390;-45
2022/09/06 02:45:56;;;;;;;;;;;;;;;18.32;100.00;101432.38;5036493;28;19939;-47
2022/09/06 02:48:22;;;;;;;;;;;;;;;18.43;100.00;101439.94;5033915;28;19962;-45
2022/09/06 02:50:47;;;;;;;;;;;;;;;18.48;100.00;101448.28;5031665;28;20326;-45
2022/09/06 02:53:13;;;;;;;;;;;;;;;18.51;100.00;101436.25;5033907;28;19920;-43
2022/09/06 02:55:38;;;;;;;;;;;;;;;18.53;100.00;101439.56;5036988;28;19942;-49
2022/09/06 02:58:05;;;;;;;;;;;;;;;18.52;100.00;101438.75;5037356;28;19912;-46
2022/09/06 03:00:31;;;;;;;;;;;;;;;18.50;100.00;101448.94;5025176;28;20004;-47
2022/09/06 03:02:56;;;;;;;;;;;;;;;18.46;100.00;101447.66;5034223;28;20023;-45
2022/09/06 03:05:22;;;;;;;;;;;;;;;18.43;100.00;101434.53;5022562;28;19916;-43
2022/09/06 03:07:48;;;;;;;;;;;;;;;18.44;100.00;101426.22;5031344;28;20112;-43
2022/09/06 03:10:13;;;;;;;;;;;;;;;18.45;100.00;101427.06;5033977;28;20490;-43
2022/09/06 03:12:38;;;;;;;;;;;;;;;18.47;100.00;101421.47;5036576;28;19970;-42
2022/09/06 03:15:04;;;;;;;;;;;;;;;18.47;100.00;101416.06;5037484;28;20407;-44
2022/09/06 03:17:29;;;;;;;;;;;;;;;18.49;100.00;101416.69;5036457;28;19912;-44
2022/09/06 03:19:54;;;;;;;;;;;;;;;18.44;100.00;101414.56;5036909;28;19915;-43
2022/09/06 03:22:19;;;;;;;;;;;;;;;18.41;100.00;101420.38;5037310;28;20268;-43
2022/09/06 03:24:44;;;;;;;;;;;;;;;18.39;100.00;101425.97;5037255;28;19909;-45
2022/09/06 03:27:10;;;;;;;;;;;;;;;18.39;100.00;101430.56;5066098;28;19935;-45
2022/09/06 03:29:35;;;;;;;;;;;;;;;18.37;100.00;101429.91;5028667;28;20014;-44
2022/09/06 03:32:00;;;;;;;;;;;;;;;18.35;100.00;101432.00;5034098;28;19966;-43
2022/09/06 03:34:25;;;;;;;;;;;;;;;18.29;100.00;101436.31;5026656;28;20431;-44
2022/09/06 03:36:50;;;;;;;;;;;;;;;18.24;100.00;101445.03;5028104;28;19917;-45
2022/09/06 03:39:16;;;;;;;;;;;;;;;18.21;100.00;101442.72;5021789;28;19916;-43
2022/09/06 03:41:41;;;;;;;;;;;;;;;18.18;100.00;101448.50;5035732;28;20438;-46
2022/09/06 03:44:06;;;;;;;;;;;;;;;18.18;100.00;101444.97;5030149;28;19917;-45
2022/09/06 03:46:31;;;;;;;;;;;;;;;18.15;100.00;101429.97;5027354;28;19908;-41
2022/09/06 03:48:57;;;;;;;;;;;;;;;18.18;100.00;101437.69;5034650;28;20112;-44
2022/09/06 03:51:22;;;;;;;;;;;;;;;18.18;100.00;101439.56;5033890;28;20343;-43
2022/09/06 03:53:48;;;;;;;;;;;;;;;18.16;100.00;101428.09;5025702;28;19919;-43
2022/09/06 03:56:13;;;;;;;;;;;;;;;18.12;100.00;101438.47;5035625;28;19915;-42
2022/09/06 03:58:38;;;;;;;;;;;;;;;18.08;100.00;101443.44;5030467;28;19920;-44
2022/09/06 04:01:06;;;;;;;;;;;;;;;18.04;100.00;101435.91;5030803;28;19920;-43
2022/09/06 04:03:32;;;;;;;;;;;;;;;18.04;100.00;101446.72;5025555;28;20356;-42
2022/09/06 04:05:57;;;;;;;;;;;;;;;18.03;100.00;101445.91;5029182;28;19913;-43
2022/09/06 04:08:23;;;;;;;;;;;;;;;18.04;100.00;101446.72;5032108;28;20005;-44
2022/09/06 04:10:49;;;;;;;;;;;;;;;18.03;100.00;101440.50;5026937;28;19971;-43
2022/09/06 04:13:14;;;;;;;;;;;;;;;18.01;100.00;101441.72;5035669;28;19913;-45
2022/09/06 04:15:39;;;;;;;;;;;;;;;17.97;100.00;101441.25;5032726;28;20378;-45
2022/09/06 04:18:04;;;;;;;;;;;;;;;17.89;100.00;101441.44;5057670;28;19967;-44
2022/09/06 04:20:29;;;;;;;;;;;;;;;17.86;100.00;101444.47;5035890;28;19946;-43
2022/09/06 04:22:55;;;;;;;;;;;;;;;17.81;100.00;101447.75;5033208;28;19917;-43
2022/09/06 04:25:20;;;;;;;;;;;;;;;17.73;100.00;101456.00;5035969;28;20439;-47
2022/09/06 04:27:45;;;;;;;;;;;;;;;17.67;100.00;101454.91;5032605;28;20089;-43
2022/09/06 04:30:10;;;;;;;;;;;;;;;17.66;100.00;101457.81;5025560;28;20333;-43
2022/09/06 04:32:35;;;;;;;;;;;;;;;17.62;100.00;101456.53;5025582;28;20366;-45
2022/09/06 04:35:00;;;;;;;;;;;;;;;17.53;100.00;101469.28;5030930;28;20359;-43
2022/09/06 04:37:26;;;;;;;;;;;;;;;17.38;100.00;101468.50;5028881;28;19924;-45
2022/09/06 04:39:51;;;;;;;;;;;;;;;17.26;100.00;101469.03;5026260;28;20406;-43
2022/09/06 04:42:16;;;;;;;;;;;;;;;17.18;100.00;101471.00;5035254;28;19916;-45
2022/09/06 04:44:41;;;;;;;;;;;;;;;17.11;100.00;101474.44;5035035;28;19927;-43
2022/09/06 04:47:11;;;;;;;;;;;;;;;17.07;100.00;101465.03;5024386;28;19916;-48
2022/09/06 04:49:36;;;;;;;;;;;;;;;17.07;100.00;101472.31;5032796;28;19913;-48
2022/09/06 04:52:02;;;;;;;;;;;;;;;17.07;100.00;101470.44;5034633;28;20394;-44
2022/09/06 04:54:27;;;;;;;;;;;;;;;17.09;100.00;101460.31;5028118;28;20284;-43
2022/09/06 04:56:52;;;;;;;;;;;;;;;17.11;100.00;101457.44;5024053;28;19913;-44
2022/09/06 04:59:17;;;;;;;;;;;;;;;17.15;100.00;101459.53;5034392;28;19913;-46
2022/09/06 05:01:42;;;;;;;;;;;;;;;17.19;100.00;101462.69;5034383;28;19917;-43
2022/09/06 05:04:07;;;;;;;;;;;;;;;17.22;100.00;101464.19;5034828;28;19917;-45
2022/09/06 05:06:33;;;;;;;;;;;;;;;17.21;100.00;101470.59;5017400;28;19924;-43
2022/09/06 05:08:58;;;;;;;;;;;;;;;17.19;100.00;101465.38;5033056;28;19982;-44
2022/09/06 05:11:23;;;;;;;;;;;;;;;17.22;100.00;101466.88;5034713;28;19927;-43
2022/09/06 05:13:49;;;;;;;;;;;;;;;17.26;100.00;101463.63;5034591;28;19987;-42
2022/09/06 05:16:14;;;;;;;;;;;;;;;17.30;100.00;101469.47;5033946;28;19913;-46
2022/09/06 05:18:39;;;;;;;;;;;;;;;17.32;100.00;101464.72;5032371;28;19917;-43
2022/09/06 05:21:04;;;;;;;;;;;;;;;17.33;100.00;101464.53;5030617;28;19921;-46
2022/09/06 05:23:30;;;;;;;;;;;;;;;17.35;100.00;101453.53;5026450;28;19920;-47
2022/09/06 05:25:55;;;;;;;;;;;;;;;17.37;100.00;101454.19;5052517;28;20288;-45
2022/09/06 05:28:20;;;;;;;;;;;;;;;17.40;100.00;101461.91;5027183;28;19912;-43
2022/09/06 05:30:45;;;;;;;;;;;;;;;17.40;100.00;101467.31;5033693;28;19919;-41
2022/09/06 05:33:11;;;;;;;;;;;;;;;17.43;100.00;101471.47;5034143;28;20563;-44
2022/09/06 05:35:37;;;;;;;;;;;;;;;17.45;100.00;101472.16;5029155;28;20191;-46
2022/09/06 05:38:02;;;;;;;;;;;;;;;17.43;100.00;101477.75;5016522;28;19921;-45
2022/09/06 05:40:27;;;;;;;;;;;;;;;17.44;100.00;101490.19;5025818;28;19913;-42
2022/09/06 05:42:52;;;;;;;;;;;;;;;17.42;100.00;101480.63;5020889;28;19919;-46
2022/09/06 05:45:18;;;;;;;;;;;;;;;17.41;100.00;101478.94;5027299;28;19920;-45
2022/09/06 05:47:43;;;;;;;;;;;;;;;17.42;100.00;101492.25;5020182;28;19909;-45
2022/09/06 05:50:08;;;;;;;;;;;;;;;17.44;100.00;101489.38;5017748;28;19917;-44
2022/09/06 05:52:34;;;;;;;;;;;;;;;17.37;100.00;101489.28;5027497;28;19920;-43
2022/09/06 05:54:59;;;;;;;;;;;;;;;17.32;100.00;101483.63;5026553;28;20279;-43
2022/09/06 05:57:25;;;;;;;;;;;;;;;17.32;100.00;101487.16;5032114;28;20352;-41
2022/09/06 05:59:52;;;;;;;;;;;;;;;17.36;100.00;101487.59;5022142;28;19959;-43
2022/09/06 06:02:17;;;;;;;;;;;;;;;17.44;100.00;101489.38;5024087;28;19921;-44
2022/09/06 06:04:42;;;;;;;;;;;;;;;17.48;100.00;101486.09;5027903;28;19925;-44
2022/09/06 06:07:07;;;;;;;;;;;;;;;17.53;100.00;101493.59;5024501;28;19917;-43
2022/09/06 06:09:33;;;;;;;;;;;;;;;17.56;100.00;101487.81;5026545;28;20011;-42
2022/09/06 06:11:58;;;;;;;;;;;;;;;17.58;100.00;101483.06;5030640;28;19955;-43
2022/09/06 06:14:23;;;;;;;;;;;;;;;17.63;100.00;101493.31;5036179;28;19913;-43
2022/09/06 06:16:49;;;;;;;;;;;;;;;17.66;100.00;101487.53;5024107;28;19917;-45
2022/09/06 06:19:15;;;;;;;;;;;;;;;17.69;100.00;101484.44;5017848;28;20411;-42
2022/09/06 06:21:40;;;;;;;;;;;;;;;17.73;100.00;101483.00;5020709;28;19931;-43
2022/09/06 06:24:05;;;;;;;;;;;;;;;17.75;100.00;101480.94;5020739;28;20498;-46
2022/09/06 06:26:32;;;;;;;;;;;;;;;17.77;100.00;101478.91;5024833;28;19909;-45
2022/09/06 06:29:00;;;;;;;;;;;;;;;17.80;100.00;101483.91;5028144;28;20003;-42
2022/09/06 06:31:26;;;;;;;;;;;;;;;17.77;100.00;101470.81;5025237;28;19916;-47
2022/09/06 06:33:51;;;;;;;;;;;;;;;17.88;100.00;101478.41;5032795;28;20426;-42
2022/09/06 06:36:20;;;;;;;;;;;;;;;17.94;100.00;101474.13;5038058;28;19920;-43
2022/09/06 06:38:45;;;;;;;;;;;;;;;17.99;100.00;101473.50;5038241;28;19919;-43
2022/09/06 06:41:11;;;;;;;;;;;;;;;18.05;100.00;101470.03;5041220;28;20003;-42
2022/09/06 06:43:37;;;;;;;;;;;;;;;18.09;100.00;101463.19;5039791;28;20287;-42
2022/09/06 06:46:07;;;;;;;;;;;;;;;18.12;100.00;101459.28;5036900;28;19912;-43
2022/09/06 06:48:32;;;;;;;;;;;;;;;18.17;100.00;101460.34;5027923;28;19919;-42
2022/09/06 06:50:57;;;;;;;;;;;;;;;18.29;100.00;101466.06;5015671;28;19924;-42
2022/09/06 06:53:23;;;;;;;;;;;;;;;18.39;100.00;101466.53;5017430;28;19912;-45
2022/09/06 06:55:48;;;;;;;;;;;;;;;18.49;100.00;101470.78;5018632;28;20002;-42
2022/09/06 06:58:14;;;;;;;;;;;;;;;18.58;100.00;101464.97;5018025;28;19920;-43
2022/09/06 07:00:40;;;;;;;;;;;;;;;18.73;100.00;101467.56;5017563;28;19917;-44
2022/09/06 07:03:06;;;;;;;;;;;;;;;18.83;100.00;101465.38;5016615;28;19917;-42
2022/09/06 07:05:31;;;;;;;;;;;;;;;18.97;100.00;101470.84;5015521;28;20015;-43
2022/09/06 07:07:57;;;;;;;;;;;;;;;19.06;100.00;101475.06;5017012;28;19960;-42
2022/09/06 07:10:23;;;;;;;;;;;;;;;19.14;100.00;101466.75;5017252;28;19935;-41
2022/09/06 07:12:48;;;;;;;;;;;;;;;19.31;100.00;101469.91;5016944;28;20007;-42
2022/09/06 07:15:13;;;;;;;;;;;;;;;19.45;100.00;101457.28;5015940;28;20063;-43
2022/09/06 07:17:38;;;;;;;;;;;;;;;19.61;100.00;101457.94;5016425;28;19909;-44
2022/09/06 07:20:04;;;;;;;;;;;;;;;19.77;100.00;101451.28;5016965;28;19920;-42
2022/09/06 07:22:29;;;;;;;;;;;;;;;19.91;100.00;101453.81;5017308;28;19924;-43
2022/09/06 07:24:54;;;;;;;;;;;;;;;20.05;100.00;101460.06;5031717;28;19912;-44
2022/09/06 07:27:19;;;;;;;;;;;;;;;20.13;100.00;101456.31;5036213;28;19970;-43
2022/09/06 07:29:45;;;;;;;;;;;;;;;20.19;100.00;101460.88;5032378;28;19916;-42
2022/09/06 07:32:10;;;;;;;;;;;;;;;20.28;100.00;101467.78;5020768;28;19912;-45
2022/09/06 07:34:38;;;;;;;;;;;;;;;20.37;100.00;101462.97;5016547;28;20306;-44
2022/09/06 07:37:03;;;;;;;;;;;;;;;20.52;100.00;101465.44;5016007;28;20012;-44
2022/09/06 07:39:28;;;;;;;;;;;;;;;20.62;100.00;101473.13;5014458;28;19919;-45
2022/09/06 07:41:54;;;;;;;;;;;;;;;20.64;100.00;101473.78;5017175;28;19956;-45
2022/09/06 07:44:19;;;;;;;;;;;;;;;20.70;100.00;101477.53;5016238;28;19916;-43
2022/09/06 07:46:44;;;;;;;;;;;;;;;20.74;100.00;101470.63;5015751;28;19909;-42
2022/09/06 07:49:09;;;;;;;;;;;;;;;20.86;100.00;101466.22;5016574;28;20015;-46
2022/09/06 07:51:35;;;;;;;;;;;;;;;21.02;100.00;101463.00;5015815;28;19913;-44
2022/09/06 07:54:00;;;;;;;;;;;;;;;21.17;100.00;101470.03;5022592;28;19923;-42
2022/09/06 07:56:26;;;;;;;;;;;;;;;21.22;100.00;101464.78;5026593;28;19913;-43
2022/09/06 07:58:51;;;;;;;;;;;;;;;21.38;100.00;101466.16;5028956;28;20203;-44
2022/09/06 08:01:16;;;;;;;;;;;;;;;21.57;100.00;101464.41;5023516;28;20129;-44
2022/09/06 08:03:42;;;;;;;;;;;;;;;;;;5015371;28;20320;-45
2022/09/06 08:06:07;;;;;;;;;;;;;;;21.75;100.00;101456.31;5023507;28;19916;-44
2022/09/06 08:08:32;;;;;;;;;;;;;;;21.90;100.00;101452.47;5031560;28;19925;-43
2022/09/06 08:10:57;;;;;;;;;;;;;;;22.04;100.00;101448.56;5016886;28;20368;-47
2022/09/06 08:13:22;;;;;;;;;;;;;;;22.12;99.92;101450.19;5015860;28;19924;-44
2022/09/06 08:15:47;;;;;;;;;;;;;;;22.26;100.00;101448.16;5016179;28;20383;-43
2022/09/06 08:18:13;;;;;;;;;;;;;;;22.52;99.26;101449.78;5015553;28;19992;-47
2022/09/06 08:20:38;;;;;;;;;;;;;;;22.74;97.50;101450.19;5015674;28;19924;-46
2022/09/06 08:23:09;;;;;;;;;;;;;;;22.83;92.65;101442.56;5015947;28;19916;-45
2022/09/06 08:25:34;;;;;;;;;;;;;;;22.80;94.63;101446.56;5014245;28;19955;-44
2022/09/06 08:28:00;;;;;;;;;;;;;;;22.85;94.04;101443.97;5018242;28;19909;-42
2022/09/06 08:30:26;;;;;;;;;;;;;;;22.81;91.34;101442.78;5015175;28;19976;-46
2022/09/06 08:32:51;;;;;;;;;;;;;;;22.68;91.74;101441.03;5026676;28;19928;-44
2022/09/06 08:35:16;;;;;;;;;;;;;;;22.67;92.68;101442.09;5034782;28;19924;-44
2022/09/06 08:37:42;;;;;;;;;;;;;;;22.77;94.74;101441.56;5034497;28;19909;-44
2022/09/06 08:40:07;;;;;;;;;;;;;;;22.80;92.55;101441.09;5025532;28;19968;-44
2022/09/06 08:42:36;;;;;;;;;;;;;;;22.87;91.00;101452.75;5017448;28;20423;-44
2022/09/06 08:45:03;;;;;;;;;;;;;;;22.95;92.47;101450.78;5017250;28;19913;-43
2022/09/06 08:47:28;;;;;;;;;;;;;;;23.15;91.22;101437.78;5016053;28;20037;-44
2022/09/06 08:50:14;;;;;;;;;;;;;;;23.35;90.77;101442.91;5018505;28;20358;-46
2022/09/06 08:52:39;;;;;;;;;;;;;;;23.55;89.29;101447.25;5016785;28;20307;-43
2022/09/06 08:55:28;;;;;;;;;;;;;;;23.50;86.44;101441.66;5016141;28;19909;-45
2022/09/06 08:58:03;;;;;;;;;;;;;;;23.36;88.37;101446.50;5015088;28;19909;-42
2022/09/06 09:00:29;;;;;;;;;;;;;;;23.51;89.88;101438.72;5017230;28;19943;-45
2022/09/06 09:03:16;;;;;;;;;;;;;;;23.72;87.15;101450.97;5016229;28;19916;-45
2022/09/06 09:05:42;;;;;;;;;;;;;;;23.78;84.73;101450.03;5017808;28;19937;-45
2022/09/06 09:08:26;;;;;;;;;;;;;;;23.75;83.41;101444.22;5017796;28;19951;-46
2022/09/06 09:10:59;;;;;;;;;;;;;;;23.80;84.75;101447.91;5028725;28;20336;-47
2022/09/06 09:13:31;;;;;;;;;;;;;;;23.85;83.51;101433.59;5015473;28;20319;-42
2022/09/06 09:15:56;;;;;;;;;;;;;;;23.92;83.08;101445.22;5014710;28;20379;-50
2022/09/06 09:18:24;;;;;;;;;;;;;;;24.00;82.46;101447.59;5015043;28;19919;-46
2022/09/06 09:20:49;;;;;;;;;;;;;;;23.94;82.77;101429.44;5018485;28;19953;-47
2022/09/06 09:23:14;;;;;;;;;;;;;;;24.06;82.10;101436.81;5034114;28;20031;-44
2022/09/06 09:25:40;;;;;;;;;;;;;;;24.01;81.75;101435.59;5016326;28;19971;-43
2022/09/06 09:28:12;;;;;;;;;;;;;;;24.00;84.16;101430.41;5018678;28;19904;-43
2022/09/06 09:30:48;;;;;;;;;;;;;;;24.14;80.93;101434.53;5033708;28;19983;-42
2022/09/06 09:33:28;;;;;;;;;;;;;;;24.14;83.44;101431.81;5033975;28;20303;-42
2022/09/06 09:35:54;;;;;;;;;;;;;;;24.26;82.85;101436.44;5034015;28;19912;-44
2022/09/06 09:38:25;;;;;;;;;;;;;;;24.28;81.99;101446.06;5033235;28;19948;-44
2022/09/06 09:40:50;;;;;;;;;;;;;;;24.35;83.12;101445.94;5034063;28;20060;-42
2022/09/06 09:43:20;;;;;;;;;;;;;;;24.51;80.09;101444.38;5035080;28;19908;-41
2022/09/06 09:45:56;;;;;;;;;;;;;;;24.64;81.41;101443.31;5034427;28;19912;-42
2022/09/06 09:48:28;;;;;;;;;;;;;;;24.77;81.38;101449.34;5033888;28;19916;-41
2022/09/06 09:50:54;;;;;;;;;;;;;;;24.82;78.24;101448.63;5034417;28;19939;-46
2022/09/06 09:53:21;;;;;;;;;;;;;;;24.81;79.96;101436.00;5032442;28;19909;-42
2022/09/06 09:55:46;;;;;;;;;;;;;;;24.85;79.61;101442.66;5034370;28;19944;-43
2022/09/06 09:58:21;;;;;;;;;;;;;;;24.93;78.22;101434.09;5035421;28;20017;-44
2022/09/06 10:00:46;;;;;;;;;;;;;;;24.99;79.45;101434.19;5034473;28;20011;-43
2022/09/06 10:03:12;;;;;;;;;;;;;;;25.11;79.45;101440.44;5033779;28;20500;-42
2022/09/06 10:05:38;;;;;;;;;;;;;;;25.35;80.26;101429.44;5034750;28;20088;-46
2022/09/06 10:08:08;;;;;;;;;;;;;;;25.53;77.04;101428.34;5035168;28;19913;-46
2022/09/06 10:10:38;;;;;;;;;;;;;;;25.56;78.27;101431.44;5032780;28;19927;-43
2022/09/06 10:13:05;;;;;;;;;;;;;;;25.73;76.60;101438.81;5034877;28;19916;-42
2022/09/06 10:15:32;;;;;;;;;;;;;;;25.67;73.92;101441.47;5033710;28;20422;-42
2022/09/06 10:17:57;;;;;;;;;;;;;;;25.60;75.05;101445.47;5033263;28;19939;-44
2022/09/06 10:20:30;;;;;;;;;;;;;;;25.66;74.74;101442.56;5032998;28;19912;-43
2022/09/06 10:22:56;;;;;;;;;;;;;;;25.86;75.34;101449.44;5031470;28;19909;-44
2022/09/06 10:25:24;;;;;;;;;;;;;;;25.99;71.98;101457.34;5028456;28;20288;-45
2022/09/06 10:28:11;;;;;;;;;;;;;;;26.10;73.87;101458.31;5020169;28;19999;-41
2022/09/06 10:30:42;;;;;;;;;;;;;;;26.23;74.49;101455.25;5034093;28;19915;-46
2022/09/06 10:33:13;;;;;;;;;;;;;;;26.40;73.83;101454.41;5031161;28;19938;-44
2022/09/06 10:35:39;;;;;;;;;;;;;;;26.52;73.39;101448.81;5031731;28;19913;-43
2022/09/06 10:38:31;;;;;;;;;;;;;;;26.60;72.68;101446.44;5031674;28;20139;-44
2022/09/06 10:41:10;;;;;;;;;;;;;;;26.62;69.76;101446.19;5034628;28;19920;-45
2022/09/06 10:43:52;;;;;;;;;;;;;;;26.55;70.72;101445.56;5028503;28;19912;-44
2022/09/06 10:46:20;;;;;;;;;;;;;;;26.57;72.33;101446.13;5032420;28;19913;-45
2022/09/06 10:48:46;;;;;;;;;;;;;;;26.60;71.85;101443.72;5034064;28;19950;-43
2022/09/06 10:51:21;;;;;;;;;;;;;;;26.56;71.86;101441.72;5035634;28;19913;-42
2022/09/06 10:54:05;;;;;;;;;;;;;;;26.58;71.70;101442.31;5017218;28;19924;-46
2022/09/06 10:56:49;;;;;;;;;;;;;;;26.77;71.08;101437.38;5017557;28;19987;-42
2022/09/06 10:59:22;;;;;;;;;;;;;;;26.93;69.45;101443.84;5018349;28;19916;-44
2022/09/06 11:02:14;;;;;;;;;;;;;;;27.01;71.26;101445.34;5016755;28;19974;-44
2022/09/06 11:04:40;;;;;;;;;;;;;;;27.07;69.82;101436.91;5017053;28;19932;-44
2022/09/06 11:07:29;;;;;;;;;;;;;;;26.84;69.42;101437.19;5016975;28;20291;-44
2022/09/06 11:09:57;;;;;;;;;;;;;;;26.49;70.67;101439.16;5018915;28;20000;-42
2022/09/06 11:12:31;;;;;;;;;;;;;;;26.67;73.07;101445.47;5017261;28;19909;-42
2022/09/06 11:14:56;;;;;;;;;;;;;;;27.05;71.30;101440.97;5016837;28;19995;-47
2022/09/06 11:17:24;;;;;;;;;;;;;;;27.39;68.65;101440.81;5049624;28;20023;-43
2022/09/06 11:19:59;;;;;;;;;;;;;;;27.57;67.81;101445.91;5032306;28;19919;-44
2022/09/06 11:22:25;;;;;;;;;;;;;;;27.50;67.90;101453.53;5033684;28;19979;-43
2022/09/06 11:25:09;;;;;;;;;;;;;;;27.45;69.75;101457.06;5018059;28;19913;-44
2022/09/06 11:27:39;;;;;;;;;;;;;;;27.66;65.27;101468.22;5017524;28;19978;-42
2022/09/06 11:30:05;;;;;;;;;;;;;;;27.67;63.98;101467.16;5036344;28;19912;-42
2022/09/06 11:32:47;;;;;;;;;;;;;;;27.69;65.09;101467.72;5031884;28;19912;-41
2022/09/06 11:35:21;;;;;;;;;;;;;;;27.87;65.62;101472.81;5035873;28;20000;-44
2022/09/06 11:37:50;;;;;;;;;;;;;;;28.02;64.44;101466.63;5022984;28;19920;-43
2022/09/06 11:40:23;;;;;;;;;;;;;;;27.99;61.70;101474.56;5017420;28;19915;-44
2022/09/06 11:42:48;;;;;;;;;;;;;;;27.92;63.23;101466.56;5017061;28;20364;-43
2022/09/06 11:45:32;;;;;;;;;;;;;;;27.98;63.25;101460.00;5015811;28;19920;-44
2022/09/06 11:48:17;;;;;;;;;;;;;;;27.93;62.83;101456.41;5015202;28;20291;-45
2022/09/06 11:50:52;;;;;;;;;;;;;;;27.87;61.85;101461.00;5014508;28;19924;-43
2022/09/06 11:53:17;;;;;;;;;;;;;;;27.86;60.32;101456.59;5013723;28;20519;-44
2022/09/06 11:55:44;;;;;;;;;;;;;;;27.97;62.18;101450.13;5019655;28;19951;-44
2022/09/06 11:58:11;;;;;;;;;;;;;;;28.16;62.13;101450.53;5033688;28;19912;-45
2022/09/06 12:00:36;;;;;;;;;;;;;;;28.29;61.41;101457.47;5026714;28;19990;-43
2022/09/06 12:03:05;;;;;;;;;;;;;;;28.41;58.95;101446.25;5012669;28;19967;-44
2022/09/06 12:05:31;;;;;;;;;;;;;;;28.48;58.46;101446.88;5013838;28;19913;-42
2022/09/06 12:08:15;;;;;;;;;;;;;;;28.68;55.15;101446.16;5014626;28;19920;-41
2022/09/06 12:10:56;;;;;;;;;;;;;;;28.72;55.07;101440.94;5013388;28;19917;-44
2022/09/06 12:13:33;;;;;;;;;;;;;;;28.78;55.82;101437.94;5014254;28;19913;-43
2022/09/06 12:15:59;;;;;;;;;;;;;;;29.02;55.59;101449.31;5012475;28;19923;-43
2022/09/06 12:18:43;;;;;;;;;;;;;;;29.03;56.82;101439.94;5020737;28;19912;-42
2022/09/06 12:21:09;;;;;;;;;;;;;;;29.09;55.96;101434.47;5032142;28;19954;-44
2022/09/06 12:23:34;;;;;;;;;;;;;;;29.22;58.32;101433.16;5030463;28;20753;-45
2022/09/06 12:26:00;;;;;;;;;;;;;;;29.48;57.67;101436.75;5014160;28;20015;-44
2022/09/06 12:28:45;;;;;;;;;;;;;;;29.62;54.63;101429.63;5021582;28;19909;-44
2022/09/06 12:31:37;;;;;;;;;;;;;;;29.84;57.03;101432.13;5033523;28;20035;-44
2022/09/06 12:34:32;;;;;;;;;;;;;;;30.02;50.59;101438.94;5032925;28;20003;-44
2022/09/06 12:37:05;;;;;;;;;;;;;;;30.12;48.85;101429.84;5032514;28;20439;-44